sensor_id;sensor_type;location;lat;lon;timestamp;P1;durP1;ratioP1;P2;durP2;ratioP2
39188;SDS011;24915;50.858;4.376;2022-10-22T00:01:13;16.05;;;4.47;;
39188;SDS011;24915;50.858;4.376;2022-10-22T00:03:39;23.65;;;7.93;;
39188;SDS011;24915;50.858;4.376;2022-10-22T00:06:05;15.63;;;5.18;;
39188;SDS011;24915;50.858;4.376;2022-10-22T00:08:31;16.42;;;4.32;;
39188;SDS011;24915;50.858;4.376;2022-10-22T00:10:57;14.30;;;4.40;;
39188;SDS011;24915;50.858;4.376;2022-10-22T00:13:23;11.95;;;4.40;;
39188;SDS011;24915;50.858;4.376;2022-10-22T00:15:49;14.50;;;3.83;;
39188;SDS011;24915;50.858;4.376;2022-10-22T00:18:14;16.50;;;4.35;;
39188;SDS011;24915;50.858;4.376;2022-10-22T00:20:40;16.85;;;4.65;;
39188;SDS011;24915;50.858;4.376;2022-10-22T00:23:07;13.25;;;4.25;;
39188;SDS011;24915;50.858;4.376;2022-10-22T00:25:33;22.80;;;6.30;;
39188;SDS011;24915;50.858;4.376;2022-10-22T00:28:00;16.15;;;4.75;;
39188;SDS011;24915;50.858;4.376;2022-10-22T00:30:26;21.42;;;6.28;;
39188;SDS011;24915;50.858;4.376;2022-10-22T00:32:52;25.75;;;12.20;;
39188;SDS011;24915;50.858;4.376;2022-10-22T00:35:18;19.38;;;6.32;;
39188;SDS011;24915;50.858;4.376;2022-10-22T00:37:43;18.25;;;5.85;;
39188;SDS011;24915;50.858;4.376;2022-10-22T00:40:09;12.20;;;3.78;;
39188;SDS011;24915;50.858;4.376;2022-10-22T00:42:36;16.60;;;3.72;;
39188;SDS011;24915;50.858;4.376;2022-10-22T00:47:30;14.43;;;3.50;;
39188;SDS011;24915;50.858;4.376;2022-10-22T00:50:02;14.00;;;4.03;;
39188;SDS011;24915;50.858;4.376;2022-10-22T00:52:30;17.85;;;4.53;;
39188;SDS011;24915;50.858;4.376;2022-10-22T00:54:56;15.82;;;4.45;;
39188;SDS011;24915;50.858;4.376;2022-10-22T00:57:22;17.55;;;3.60;;
39188;SDS011;24915;50.858;4.376;2022-10-22T00:59:48;17.23;;;4.18;;
39188;SDS011;24915;50.858;4.376;2022-10-22T01:02:14;18.05;;;4.38;;
39188;SDS011;24915;50.858;4.376;2022-10-22T01:04:40;13.13;;;4.13;;
39188;SDS011;24915;50.858;4.376;2022-10-22T01:07:06;7.53;;;3.50;;
39188;SDS011;24915;50.858;4.376;2022-10-22T01:09:40;15.75;;;3.90;;
39188;SDS011;24915;50.858;4.376;2022-10-22T01:15:25;12.32;;;3.50;;
39188;SDS011;24915;50.858;4.376;2022-10-22T01:17:49;11.43;;;3.95;;
39188;SDS011;24915;50.858;4.376;2022-10-22T01:20:24;22.85;;;3.92;;
39188;SDS011;24915;50.858;4.376;2022-10-22T01:25:39;14.10;;;3.75;;
39188;SDS011;24915;50.858;4.376;2022-10-22T01:28:20;13.02;;;3.40;;
39188;SDS011;24915;50.858;4.376;2022-10-22T01:30:59;11.98;;;3.55;;
39188;SDS011;24915;50.858;4.376;2022-10-22T01:33:26;11.35;;;3.25;;
39188;SDS011;24915;50.858;4.376;2022-10-22T01:35:53;10.98;;;3.47;;
39188;SDS011;24915;50.858;4.376;2022-10-22T01:38:20;16.58;;;3.72;;
39188;SDS011;24915;50.858;4.376;2022-10-22T01:40:48;12.43;;;3.65;;
39188;SDS011;24915;50.858;4.376;2022-10-22T01:43:15;10.20;;;3.28;;
39188;SDS011;24915;50.858;4.376;2022-10-22T01:45:45;14.43;;;3.33;;
39188;SDS011;24915;50.858;4.376;2022-10-22T01:48:35;15.05;;;3.10;;
39188;SDS011;24915;50.858;4.376;2022-10-22T02:02:23;15.75;;;3.17;;
39188;SDS011;24915;50.858;4.376;2022-10-22T02:05:20;13.45;;;3.65;;
39188;SDS011;24915;50.858;4.376;2022-10-22T02:07:49;15.13;;;3.63;;
39188;SDS011;24915;50.858;4.376;2022-10-22T02:10:21;10.85;;;3.13;;
39188;SDS011;24915;50.858;4.376;2022-10-22T02:12:49;11.20;;;2.63;;
39188;SDS011;24915;50.858;4.376;2022-10-22T02:15:17;16.80;;;3.03;;
39188;SDS011;24915;50.858;4.376;2022-10-22T02:17:45;14.30;;;3.05;;
39188;SDS011;24915;50.858;4.376;2022-10-22T02:20:14;7.57;;;2.20;;
39188;SDS011;24915;50.858;4.376;2022-10-22T02:22:43;6.43;;;2.40;;
39188;SDS011;24915;50.858;4.376;2022-10-22T02:25:10;15.15;;;3.17;;
39188;SDS011;24915;50.858;4.376;2022-10-22T02:27:43;11.63;;;2.58;;
39188;SDS011;24915;50.858;4.376;2022-10-22T02:30:21;11.70;;;2.70;;
39188;SDS011;24915;50.858;4.376;2022-10-22T02:35:38;13.25;;;3.17;;
39188;SDS011;24915;50.858;4.376;2022-10-22T02:38:06;11.07;;;2.70;;
39188;SDS011;24915;50.858;4.376;2022-10-22T02:40:33;13.93;;;2.70;;
39188;SDS011;24915;50.858;4.376;2022-10-22T02:43:00;13.05;;;2.78;;
39188;SDS011;24915;50.858;4.376;2022-10-22T02:45:29;12.27;;;2.90;;
39188;SDS011;24915;50.858;4.376;2022-10-22T02:47:55;13.82;;;2.83;;
39188;SDS011;24915;50.858;4.376;2022-10-22T02:50:21;15.75;;;2.85;;
39188;SDS011;24915;50.858;4.376;2022-10-22T02:52:47;12.20;;;2.30;;
39188;SDS011;24915;50.858;4.376;2022-10-22T02:55:12;10.52;;;2.60;;
39188;SDS011;24915;50.858;4.376;2022-10-22T02:57:38;18.15;;;2.92;;
39188;SDS011;24915;50.858;4.376;2022-10-22T03:00:04;15.73;;;3.05;;
39188;SDS011;24915;50.858;4.376;2022-10-22T03:02:31;15.02;;;2.75;;
39188;SDS011;24915;50.858;4.376;2022-10-22T03:04:57;12.15;;;2.53;;
39188;SDS011;24915;50.858;4.376;2022-10-22T03:07:22;16.45;;;3.08;;
39188;SDS011;24915;50.858;4.376;2022-10-22T03:09:48;9.55;;;2.38;;
39188;SDS011;24915;50.858;4.376;2022-10-22T03:12:14;11.10;;;2.55;;
39188;SDS011;24915;50.858;4.376;2022-10-22T03:14:39;9.30;;;2.38;;
39188;SDS011;24915;50.858;4.376;2022-10-22T03:17:05;10.38;;;2.60;;
39188;SDS011;24915;50.858;4.376;2022-10-22T03:19:31;7.40;;;2.72;;
39188;SDS011;24915;50.858;4.376;2022-10-22T03:22:06;11.63;;;2.55;;
39188;SDS011;24915;50.858;4.376;2022-10-22T03:24:39;12.52;;;3.08;;
39188;SDS011;24915;50.858;4.376;2022-10-22T03:27:09;15.90;;;2.65;;
39188;SDS011;24915;50.858;4.376;2022-10-22T03:29:37;17.40;;;2.97;;
39188;SDS011;24915;50.858;4.376;2022-10-22T03:32:05;12.35;;;2.55;;
39188;SDS011;24915;50.858;4.376;2022-10-22T03:34:31;10.95;;;3.08;;
39188;SDS011;24915;50.858;4.376;2022-10-22T03:36:57;14.20;;;2.40;;
39188;SDS011;24915;50.858;4.376;2022-10-22T03:39:24;8.40;;;2.40;;
39188;SDS011;24915;50.858;4.376;2022-10-22T03:41:53;13.30;;;2.55;;
39188;SDS011;24915;50.858;4.376;2022-10-22T03:44:19;17.45;;;2.97;;
39188;SDS011;24915;50.858;4.376;2022-10-22T03:46:46;9.93;;;2.60;;
39188;SDS011;24915;50.858;4.376;2022-10-22T03:49:12;13.70;;;2.17;;
39188;SDS011;24915;50.858;4.376;2022-10-22T03:51:38;13.43;;;2.47;;
39188;SDS011;24915;50.858;4.376;2022-10-22T03:54:04;11.70;;;2.78;;
39188;SDS011;24915;50.858;4.376;2022-10-22T03:56:29;9.27;;;2.20;;
39188;SDS011;24915;50.858;4.376;2022-10-22T03:58:56;12.65;;;2.30;;
39188;SDS011;24915;50.858;4.376;2022-10-22T04:01:22;11.88;;;2.60;;
39188;SDS011;24915;50.858;4.376;2022-10-22T04:03:48;12.35;;;2.67;;
39188;SDS011;24915;50.858;4.376;2022-10-22T04:06:14;10.52;;;2.45;;
39188;SDS011;24915;50.858;4.376;2022-10-22T04:08:40;9.15;;;2.17;;
39188;SDS011;24915;50.858;4.376;2022-10-22T04:11:07;10.48;;;2.90;;
39188;SDS011;24915;50.858;4.376;2022-10-22T04:13:33;9.23;;;2.47;;
39188;SDS011;24915;50.858;4.376;2022-10-22T04:16:11;11.82;;;2.78;;
39188;SDS011;24915;50.858;4.376;2022-10-22T04:18:39;13.52;;;2.10;;
39188;SDS011;24915;50.858;4.376;2022-10-22T04:21:05;14.48;;;2.40;;
39188;SDS011;24915;50.858;4.376;2022-10-22T04:23:33;11.55;;;2.70;;
39188;SDS011;24915;50.858;4.376;2022-10-22T04:26:06;12.50;;;2.33;;
39188;SDS011;24915;50.858;4.376;2022-10-22T04:28:32;16.55;;;2.92;;
39188;SDS011;24915;50.858;4.376;2022-10-22T04:30:58;11.00;;;2.83;;
39188;SDS011;24915;50.858;4.376;2022-10-22T04:33:24;6.80;;;2.05;;
39188;SDS011;24915;50.858;4.376;2022-10-22T04:35:50;13.35;;;2.58;;
39188;SDS011;24915;50.858;4.376;2022-10-22T04:38:16;13.70;;;2.83;;
39188;SDS011;24915;50.858;4.376;2022-10-22T04:40:41;13.25;;;2.10;;
39188;SDS011;24915;50.858;4.376;2022-10-22T04:43:07;13.23;;;2.83;;
39188;SDS011;24915;50.858;4.376;2022-10-22T04:45:33;10.30;;;2.30;;
39188;SDS011;24915;50.858;4.376;2022-10-22T04:47:59;10.52;;;2.38;;
39188;SDS011;24915;50.858;4.376;2022-10-22T04:50:25;17.08;;;2.65;;
39188;SDS011;24915;50.858;4.376;2022-10-22T04:52:52;14.32;;;2.20;;
39188;SDS011;24915;50.858;4.376;2022-10-22T04:55:17;8.00;;;2.17;;
39188;SDS011;24915;50.858;4.376;2022-10-22T04:57:43;13.35;;;3.00;;
39188;SDS011;24915;50.858;4.376;2022-10-22T05:00:09;13.43;;;2.30;;
39188;SDS011;24915;50.858;4.376;2022-10-22T05:02:35;9.55;;;1.98;;
39188;SDS011;24915;50.858;4.376;2022-10-22T05:05:00;19.55;;;3.15;;
39188;SDS011;24915;50.858;4.376;2022-10-22T05:07:27;15.85;;;2.42;;
39188;SDS011;24915;50.858;4.376;2022-10-22T05:09:52;14.50;;;2.75;;
39188;SDS011;24915;50.858;4.376;2022-10-22T05:12:18;14.00;;;2.55;;
39188;SDS011;24915;50.858;4.376;2022-10-22T05:14:44;14.25;;;2.50;;
39188;SDS011;24915;50.858;4.376;2022-10-22T05:17:09;14.52;;;3.05;;
39188;SDS011;24915;50.858;4.376;2022-10-22T05:19:35;17.85;;;2.65;;
39188;SDS011;24915;50.858;4.376;2022-10-22T05:22:02;11.48;;;2.80;;
39188;SDS011;24915;50.858;4.376;2022-10-22T05:24:29;25.20;;;3.20;;
39188;SDS011;24915;50.858;4.376;2022-10-22T05:26:57;11.65;;;2.22;;
39188;SDS011;24915;50.858;4.376;2022-10-22T05:29:23;10.93;;;2.78;;
39188;SDS011;24915;50.858;4.376;2022-10-22T05:31:49;9.57;;;2.22;;
39188;SDS011;24915;50.858;4.376;2022-10-22T05:34:15;15.50;;;2.20;;
39188;SDS011;24915;50.858;4.376;2022-10-22T05:36:41;7.30;;;2.05;;
39188;SDS011;24915;50.858;4.376;2022-10-22T05:39:07;12.27;;;2.75;;
39188;SDS011;24915;50.858;4.376;2022-10-22T05:41:33;10.10;;;2.35;;
39188;SDS011;24915;50.858;4.376;2022-10-22T05:44:02;10.27;;;2.22;;
39188;SDS011;24915;50.858;4.376;2022-10-22T05:46:29;12.05;;;2.47;;
39188;SDS011;24915;50.858;4.376;2022-10-22T05:48:58;11.77;;;2.28;;
39188;SDS011;24915;50.858;4.376;2022-10-22T05:51:26;15.80;;;3.05;;
39188;SDS011;24915;50.858;4.376;2022-10-22T05:53:54;16.75;;;2.28;;
39188;SDS011;24915;50.858;4.376;2022-10-22T05:56:25;14.38;;;3.22;;
39188;SDS011;24915;50.858;4.376;2022-10-22T05:58:52;10.77;;;2.42;;
39188;SDS011;24915;50.858;4.376;2022-10-22T06:01:22;10.48;;;2.42;;
39188;SDS011;24915;50.858;4.376;2022-10-22T06:03:51;13.20;;;2.97;;
39188;SDS011;24915;50.858;4.376;2022-10-22T06:06:19;16.52;;;2.22;;
39188;SDS011;24915;50.858;4.376;2022-10-22T06:08:51;13.50;;;3.10;;
39188;SDS011;24915;50.858;4.376;2022-10-22T06:11:18;13.07;;;2.83;;
39188;SDS011;24915;50.858;4.376;2022-10-22T06:13:46;13.38;;;2.90;;
39188;SDS011;24915;50.858;4.376;2022-10-22T06:16:12;15.30;;;2.80;;
39188;SDS011;24915;50.858;4.376;2022-10-22T06:18:38;20.05;;;2.80;;
39188;SDS011;24915;50.858;4.376;2022-10-22T06:21:09;12.75;;;2.30;;
39188;SDS011;24915;50.858;4.376;2022-10-22T06:23:36;12.00;;;2.60;;
39188;SDS011;24915;50.858;4.376;2022-10-22T06:26:03;13.70;;;2.85;;
39188;SDS011;24915;50.858;4.376;2022-10-22T06:28:29;10.38;;;2.67;;
39188;SDS011;24915;50.858;4.376;2022-10-22T06:30:58;16.35;;;3.10;;
39188;SDS011;24915;50.858;4.376;2022-10-22T06:33:26;11.05;;;2.30;;
39188;SDS011;24915;50.858;4.376;2022-10-22T06:35:52;17.40;;;2.55;;
39188;SDS011;24915;50.858;4.376;2022-10-22T06:38:18;11.90;;;2.33;;
39188;SDS011;24915;50.858;4.376;2022-10-22T06:40:44;17.00;;;3.45;;
39188;SDS011;24915;50.858;4.376;2022-10-22T06:43:10;19.80;;;2.90;;
39188;SDS011;24915;50.858;4.376;2022-10-22T06:45:37;17.33;;;2.88;;
39188;SDS011;24915;50.858;4.376;2022-10-22T06:48:03;17.00;;;2.85;;
39188;SDS011;24915;50.858;4.376;2022-10-22T06:50:28;10.65;;;2.75;;
39188;SDS011;24915;50.858;4.376;2022-10-22T06:52:54;15.32;;;2.63;;
39188;SDS011;24915;50.858;4.376;2022-10-22T06:55:21;8.50;;;2.17;;
39188;SDS011;24915;50.858;4.376;2022-10-22T06:57:47;19.42;;;2.95;;
39188;SDS011;24915;50.858;4.376;2022-10-22T07:00:12;10.82;;;2.67;;
39188;SDS011;24915;50.858;4.376;2022-10-22T07:02:38;12.65;;;2.97;;
39188;SDS011;24915;50.858;4.376;2022-10-22T07:05:04;16.23;;;3.40;;
39188;SDS011;24915;50.858;4.376;2022-10-22T07:07:30;18.90;;;3.05;;
39188;SDS011;24915;50.858;4.376;2022-10-22T07:09:56;11.73;;;2.65;;
39188;SDS011;24915;50.858;4.376;2022-10-22T07:12:21;14.52;;;2.88;;
39188;SDS011;24915;50.858;4.376;2022-10-22T07:14:47;14.30;;;3.30;;
39188;SDS011;24915;50.858;4.376;2022-10-22T07:17:13;16.70;;;2.45;;
39188;SDS011;24915;50.858;4.376;2022-10-22T07:19:39;9.57;;;2.25;;
39188;SDS011;24915;50.858;4.376;2022-10-22T07:22:04;13.38;;;2.22;;
39188;SDS011;24915;50.858;4.376;2022-10-22T07:24:30;9.93;;;2.38;;
39188;SDS011;24915;50.858;4.376;2022-10-22T07:26:56;15.90;;;2.60;;
39188;SDS011;24915;50.858;4.376;2022-10-22T07:29:21;12.80;;;2.50;;
39188;SDS011;24915;50.858;4.376;2022-10-22T07:31:47;14.18;;;2.33;;
39188;SDS011;24915;50.858;4.376;2022-10-22T07:34:12;11.35;;;2.70;;
39188;SDS011;24915;50.858;4.376;2022-10-22T07:36:38;10.95;;;2.20;;
39188;SDS011;24915;50.858;4.376;2022-10-22T07:39:04;13.30;;;2.95;;
39188;SDS011;24915;50.858;4.376;2022-10-22T07:41:30;12.00;;;2.28;;
39188;SDS011;24915;50.858;4.376;2022-10-22T07:43:55;16.98;;;2.60;;
39188;SDS011;24915;50.858;4.376;2022-10-22T07:46:22;17.05;;;2.88;;
39188;SDS011;24915;50.858;4.376;2022-10-22T07:48:48;10.85;;;2.38;;
39188;SDS011;24915;50.858;4.376;2022-10-22T07:51:14;13.05;;;2.80;;
39188;SDS011;24915;50.858;4.376;2022-10-22T07:53:40;11.18;;;2.45;;
39188;SDS011;24915;50.858;4.376;2022-10-22T07:56:06;11.65;;;2.58;;
39188;SDS011;24915;50.858;4.376;2022-10-22T07:58:31;12.73;;;2.95;;
39188;SDS011;24915;50.858;4.376;2022-10-22T08:00:58;14.40;;;2.72;;
39188;SDS011;24915;50.858;4.376;2022-10-22T08:03:24;12.63;;;2.90;;
39188;SDS011;24915;50.858;4.376;2022-10-22T08:05:51;9.18;;;2.20;;
39188;SDS011;24915;50.858;4.376;2022-10-22T08:08:18;16.42;;;2.70;;
39188;SDS011;24915;50.858;4.376;2022-10-22T08:10:45;19.88;;;2.30;;
39188;SDS011;24915;50.858;4.376;2022-10-22T08:13:11;10.95;;;2.33;;
39188;SDS011;24915;50.858;4.376;2022-10-22T08:15:38;15.13;;;2.75;;
39188;SDS011;24915;50.858;4.376;2022-10-22T08:18:04;18.13;;;3.03;;
39188;SDS011;24915;50.858;4.376;2022-10-22T08:20:30;12.38;;;2.63;;
39188;SDS011;24915;50.858;4.376;2022-10-22T08:22:55;17.17;;;3.47;;
39188;SDS011;24915;50.858;4.376;2022-10-22T08:25:21;11.57;;;2.25;;
39188;SDS011;24915;50.858;4.376;2022-10-22T08:27:47;16.27;;;2.90;;
39188;SDS011;24915;50.858;4.376;2022-10-22T08:30:13;12.10;;;2.50;;
39188;SDS011;24915;50.858;4.376;2022-10-22T08:32:39;11.23;;;2.40;;
39188;SDS011;24915;50.858;4.376;2022-10-22T08:35:06;12.15;;;2.38;;
39188;SDS011;24915;50.858;4.376;2022-10-22T08:37:32;11.18;;;2.78;;
39188;SDS011;24915;50.858;4.376;2022-10-22T08:39:57;18.60;;;2.63;;
39188;SDS011;24915;50.858;4.376;2022-10-22T08:51:00;18.60;;;3.35;;
39188;SDS011;24915;50.858;4.376;2022-10-22T08:53:40;15.20;;;3.03;;
39188;SDS011;24915;50.858;4.376;2022-10-22T08:56:16;12.80;;;2.78;;
39188;SDS011;24915;50.858;4.376;2022-10-22T08:58:51;18.67;;;3.58;;
39188;SDS011;24915;50.858;4.376;2022-10-22T09:01:36;17.00;;;3.05;;
39188;SDS011;24915;50.858;4.376;2022-10-22T09:04:06;14.60;;;3.63;;
39188;SDS011;24915;50.858;4.376;2022-10-22T09:06:39;13.40;;;3.25;;
39188;SDS011;24915;50.858;4.376;2022-10-22T09:09:11;14.25;;;3.58;;
39188;SDS011;24915;50.858;4.376;2022-10-22T09:11:42;19.63;;;3.85;;
39188;SDS011;24915;50.858;4.376;2022-10-22T09:14:14;15.05;;;3.30;;
39188;SDS011;24915;50.858;4.376;2022-10-22T09:22:21;17.58;;;3.05;;
39188;SDS011;24915;50.858;4.376;2022-10-22T09:27:43;9.95;;;2.78;;
39188;SDS011;24915;50.858;4.376;2022-10-22T09:30:20;16.60;;;3.78;;
39188;SDS011;24915;50.858;4.376;2022-10-22T09:32:54;14.32;;;3.15;;
39188;SDS011;24915;50.858;4.376;2022-10-22T09:38:01;13.85;;;2.83;;
39188;SDS011;24915;50.858;4.376;2022-10-22T09:40:31;18.05;;;3.80;;
39188;SDS011;24915;50.858;4.376;2022-10-22T09:43:05;16.17;;;3.88;;
39188;SDS011;24915;50.858;4.376;2022-10-22T09:45:33;8.70;;;2.83;;
39188;SDS011;24915;50.858;4.376;2022-10-22T09:48:07;17.27;;;3.28;;
39188;SDS011;24915;50.858;4.376;2022-10-22T09:51:36;17.55;;;3.22;;
39188;SDS011;24915;50.858;4.376;2022-10-22T09:53:42;11.25;;;2.83;;
39188;SDS011;24915;50.858;4.376;2022-10-22T09:56:16;12.23;;;2.70;;
39188;SDS011;24915;50.858;4.376;2022-10-22T09:58:49;13.48;;;3.00;;
39188;SDS011;24915;50.858;4.376;2022-10-22T10:01:17;14.02;;;2.75;;
39188;SDS011;24915;50.858;4.376;2022-10-22T10:03:49;8.45;;;3.20;;
39188;SDS011;24915;50.858;4.376;2022-10-22T10:06:19;10.40;;;3.47;;
39188;SDS011;24915;50.858;4.376;2022-10-22T10:08:46;11.10;;;3.40;;
39188;SDS011;24915;50.858;4.376;2022-10-22T10:11:28;14.13;;;2.70;;
39188;SDS011;24915;50.858;4.376;2022-10-22T10:14:05;16.63;;;2.88;;
39188;SDS011;24915;50.858;4.376;2022-10-22T10:16:55;13.98;;;3.22;;
39188;SDS011;24915;50.858;4.376;2022-10-22T10:31:04;13.82;;;2.90;;
39188;SDS011;24915;50.858;4.376;2022-10-22T10:33:59;12.73;;;2.35;;
39188;SDS011;24915;50.858;4.376;2022-10-22T10:39:33;13.00;;;3.58;;
39188;SDS011;24915;50.858;4.376;2022-10-22T10:50:33;19.60;;;3.15;;
39188;SDS011;24915;50.858;4.376;2022-10-22T10:56:08;13.85;;;2.65;;
39188;SDS011;24915;50.858;4.376;2022-10-22T11:07:02;13.95;;;2.80;;
39188;SDS011;24915;50.858;4.376;2022-10-22T11:09:38;16.35;;;2.80;;
39188;SDS011;24915;50.858;4.376;2022-10-22T11:12:25;10.65;;;3.03;;
39188;SDS011;24915;50.858;4.376;2022-10-22T11:15:30;16.95;;;3.15;;
39188;SDS011;24915;50.858;4.376;2022-10-22T11:23:48;15.40;;;3.00;;
39188;SDS011;24915;50.858;4.376;2022-10-22T11:26:40;8.20;;;2.67;;
39188;SDS011;24915;50.858;4.376;2022-10-22T11:29:21;14.25;;;3.53;;
39188;SDS011;24915;50.858;4.376;2022-10-22T11:31:50;11.30;;;3.22;;
39188;SDS011;24915;50.858;4.376;2022-10-22T11:34:21;13.02;;;3.03;;
39188;SDS011;24915;50.858;4.376;2022-10-22T11:36:46;12.55;;;2.33;;
39188;SDS011;24915;50.858;4.376;2022-10-22T11:42:17;12.05;;;2.58;;
39188;SDS011;24915;50.858;4.376;2022-10-22T11:44:58;14.98;;;3.13;;
39188;SDS011;24915;50.858;4.376;2022-10-22T11:47:34;13.60;;;2.92;;
39188;SDS011;24915;50.858;4.376;2022-10-22T11:50:20;12.57;;;2.63;;
39188;SDS011;24915;50.858;4.376;2022-10-22T11:52:53;9.75;;;2.20;;
39188;SDS011;24915;50.858;4.376;2022-10-22T11:55:28;16.13;;;2.85;;
39188;SDS011;24915;50.858;4.376;2022-10-22T12:01:26;10.23;;;2.60;;
39188;SDS011;24915;50.858;4.376;2022-10-22T12:06:23;7.95;;;2.03;;
39188;SDS011;24915;50.858;4.376;2022-10-22T12:16:54;10.60;;;2.70;;
39188;SDS011;24915;50.858;4.376;2022-10-22T12:19:28;9.40;;;2.40;;
39188;SDS011;24915;50.858;4.376;2022-10-22T12:21:58;7.68;;;2.20;;
39188;SDS011;24915;50.858;4.376;2022-10-22T12:24:30;11.88;;;2.70;;
39188;SDS011;24915;50.858;4.376;2022-10-22T12:27:00;10.55;;;3.00;;
39188;SDS011;24915;50.858;4.376;2022-10-22T12:29:26;11.35;;;2.78;;
39188;SDS011;24915;50.858;4.376;2022-10-22T12:31:52;7.43;;;1.80;;
39188;SDS011;24915;50.858;4.376;2022-10-22T12:34:22;10.18;;;2.53;;
39188;SDS011;24915;50.858;4.376;2022-10-22T12:36:50;7.43;;;2.15;;
39188;SDS011;24915;50.858;4.376;2022-10-22T12:39:18;7.35;;;2.33;;
39188;SDS011;24915;50.858;4.376;2022-10-22T12:41:45;12.13;;;4.30;;
39188;SDS011;24915;50.858;4.376;2022-10-22T12:44:15;7.78;;;2.25;;
39188;SDS011;24915;50.858;4.376;2022-10-22T12:46:42;8.73;;;2.55;;
39188;SDS011;24915;50.858;4.376;2022-10-22T12:49:12;9.80;;;2.15;;
39188;SDS011;24915;50.858;4.376;2022-10-22T12:51:43;10.50;;;2.10;;
39188;SDS011;24915;50.858;4.376;2022-10-22T12:54:16;10.38;;;2.28;;
39188;SDS011;24915;50.858;4.376;2022-10-22T12:56:52;9.63;;;2.60;;
39188;SDS011;24915;50.858;4.376;2022-10-22T13:01:47;4.95;;;1.52;;
39188;SDS011;24915;50.858;4.376;2022-10-22T13:04:34;8.02;;;1.95;;
39188;SDS011;24915;50.858;4.376;2022-10-22T13:09:39;7.38;;;2.42;;
39188;SDS011;24915;50.858;4.376;2022-10-22T13:12:08;9.77;;;3.00;;
39188;SDS011;24915;50.858;4.376;2022-10-22T13:14:40;8.20;;;2.20;;
39188;SDS011;24915;50.858;4.376;2022-10-22T13:20:17;7.45;;;2.75;;
39188;SDS011;24915;50.858;4.376;2022-10-22T13:22:52;10.57;;;2.83;;
39188;SDS011;24915;50.858;4.376;2022-10-22T13:25:36;15.85;;;2.70;;
39188;SDS011;24915;50.858;4.376;2022-10-22T13:30:52;7.25;;;2.47;;
39188;SDS011;24915;50.858;4.376;2022-10-22T13:33:32;11.27;;;2.58;;
39188;SDS011;24915;50.858;4.376;2022-10-22T13:36:03;8.68;;;2.60;;
39188;SDS011;24915;50.858;4.376;2022-10-22T13:38:29;8.73;;;2.88;;
39188;SDS011;24915;50.858;4.376;2022-10-22T13:40:55;8.27;;;2.40;;
39188;SDS011;24915;50.858;4.376;2022-10-22T13:43:21;6.93;;;2.78;;
39188;SDS011;24915;50.858;4.376;2022-10-22T13:45:51;6.47;;;1.63;;
39188;SDS011;24915;50.858;4.376;2022-10-22T13:48:19;9.27;;;2.08;;
39188;SDS011;24915;50.858;4.376;2022-10-22T13:50:47;8.13;;;2.15;;
39188;SDS011;24915;50.858;4.376;2022-10-22T13:53:14;5.72;;;1.73;;
39188;SDS011;24915;50.858;4.376;2022-10-22T13:55:42;9.68;;;2.55;;
39188;SDS011;24915;50.858;4.376;2022-10-22T13:58:10;6.75;;;2.70;;
39188;SDS011;24915;50.858;4.376;2022-10-22T14:01:01;7.20;;;1.83;;
39188;SDS011;24915;50.858;4.376;2022-10-22T14:03:32;10.90;;;3.17;;
39188;SDS011;24915;50.858;4.376;2022-10-22T14:05:59;11.18;;;3.50;;
39188;SDS011;24915;50.858;4.376;2022-10-22T14:08:26;8.25;;;2.60;;
39188;SDS011;24915;50.858;4.376;2022-10-22T14:10:52;7.03;;;2.00;;
39188;SDS011;24915;50.858;4.376;2022-10-22T14:13:18;5.90;;;1.98;;
39188;SDS011;24915;50.858;4.376;2022-10-22T14:15:45;8.60;;;2.10;;
39188;SDS011;24915;50.858;4.376;2022-10-22T14:18:23;7.57;;;2.25;;
39188;SDS011;24915;50.858;4.376;2022-10-22T14:20:53;7.57;;;2.28;;
39188;SDS011;24915;50.858;4.376;2022-10-22T14:23:22;8.25;;;3.30;;
39188;SDS011;24915;50.858;4.376;2022-10-22T14:25:49;11.73;;;3.00;;
39188;SDS011;24915;50.858;4.376;2022-10-22T14:28:15;10.98;;;2.70;;
39188;SDS011;24915;50.858;4.376;2022-10-22T14:30:41;8.80;;;2.47;;
39188;SDS011;24915;50.858;4.376;2022-10-22T14:33:12;9.43;;;2.30;;
39188;SDS011;24915;50.858;4.376;2022-10-22T14:35:49;10.27;;;2.55;;
39188;SDS011;24915;50.858;4.376;2022-10-22T14:38:15;5.57;;;2.10;;
39188;SDS011;24915;50.858;4.376;2022-10-22T14:40:41;8.00;;;2.38;;
39188;SDS011;24915;50.858;4.376;2022-10-22T14:43:28;10.68;;;2.58;;
39188;SDS011;24915;50.858;4.376;2022-10-22T14:45:55;8.48;;;2.70;;
39188;SDS011;24915;50.858;4.376;2022-10-22T14:48:21;7.93;;;2.95;;
39188;SDS011;24915;50.858;4.376;2022-10-22T14:50:48;7.47;;;2.40;;
39188;SDS011;24915;50.858;4.376;2022-10-22T14:53:13;5.93;;;2.20;;
39188;SDS011;24915;50.858;4.376;2022-10-22T14:55:41;6.63;;;2.47;;
39188;SDS011;24915;50.858;4.376;2022-10-22T14:58:08;8.43;;;2.45;;
39188;SDS011;24915;50.858;4.376;2022-10-22T15:00:34;9.70;;;2.70;;
39188;SDS011;24915;50.858;4.376;2022-10-22T15:03:00;10.07;;;2.90;;
39188;SDS011;24915;50.858;4.376;2022-10-22T15:05:26;7.65;;;1.92;;
39188;SDS011;24915;50.858;4.376;2022-10-22T15:07:52;7.88;;;3.03;;
39188;SDS011;24915;50.858;4.376;2022-10-22T15:10:18;10.85;;;2.40;;
39188;SDS011;24915;50.858;4.376;2022-10-22T15:12:44;7.80;;;2.35;;
39188;SDS011;24915;50.858;4.376;2022-10-22T15:15:10;11.25;;;2.10;;
39188;SDS011;24915;50.858;4.376;2022-10-22T15:17:36;10.05;;;2.05;;
39188;SDS011;24915;50.858;4.376;2022-10-22T15:20:02;10.23;;;3.08;;
39188;SDS011;24915;50.858;4.376;2022-10-22T15:22:32;12.13;;;2.63;;
39188;SDS011;24915;50.858;4.376;2022-10-22T15:25:02;10.38;;;2.70;;
39188;SDS011;24915;50.858;4.376;2022-10-22T15:27:30;10.30;;;2.42;;
39188;SDS011;24915;50.858;4.376;2022-10-22T15:29:55;9.10;;;2.67;;
39188;SDS011;24915;50.858;4.376;2022-10-22T15:32:23;13.70;;;3.28;;
39188;SDS011;24915;50.858;4.376;2022-10-22T15:34:51;7.05;;;3.08;;
39188;SDS011;24915;50.858;4.376;2022-10-22T15:37:18;10.40;;;2.22;;
39188;SDS011;24915;50.858;4.376;2022-10-22T15:39:44;10.65;;;2.50;;
39188;SDS011;24915;50.858;4.376;2022-10-22T15:42:09;6.97;;;2.60;;
39188;SDS011;24915;50.858;4.376;2022-10-22T15:44:35;10.70;;;2.95;;
39188;SDS011;24915;50.858;4.376;2022-10-22T15:47:02;8.60;;;2.28;;
39188;SDS011;24915;50.858;4.376;2022-10-22T15:49:28;11.13;;;2.28;;
39188;SDS011;24915;50.858;4.376;2022-10-22T15:51:54;10.85;;;2.90;;
39188;SDS011;24915;50.858;4.376;2022-10-22T15:54:21;10.90;;;2.53;;
39188;SDS011;24915;50.858;4.376;2022-10-22T15:56:49;7.80;;;2.25;;
39188;SDS011;24915;50.858;4.376;2022-10-22T15:59:15;11.23;;;2.83;;
39188;SDS011;24915;50.858;4.376;2022-10-22T16:01:41;11.82;;;3.35;;
39188;SDS011;24915;50.858;4.376;2022-10-22T16:04:07;11.77;;;2.78;;
39188;SDS011;24915;50.858;4.376;2022-10-22T16:06:37;10.55;;;3.45;;
39188;SDS011;24915;50.858;4.376;2022-10-22T16:09:10;13.48;;;3.53;;
39188;SDS011;24915;50.858;4.376;2022-10-22T16:11:37;12.77;;;3.60;;
39188;SDS011;24915;50.858;4.376;2022-10-22T16:14:03;10.05;;;4.90;;
39188;SDS011;24915;50.858;4.376;2022-10-22T16:16:31;15.07;;;5.35;;
39188;SDS011;24915;50.858;4.376;2022-10-22T16:18:58;10.45;;;4.88;;
39188;SDS011;24915;50.858;4.376;2022-10-22T16:21:24;9.38;;;3.75;;
39188;SDS011;24915;50.858;4.376;2022-10-22T16:23:50;11.55;;;3.40;;
39188;SDS011;24915;50.858;4.376;2022-10-22T16:26:17;9.93;;;3.53;;
39188;SDS011;24915;50.858;4.376;2022-10-22T16:28:43;13.68;;;4.25;;
39188;SDS011;24915;50.858;4.376;2022-10-22T16:31:11;8.02;;;3.63;;
39188;SDS011;24915;50.858;4.376;2022-10-22T16:33:38;10.98;;;3.25;;
39188;SDS011;24915;50.858;4.376;2022-10-22T16:36:06;11.55;;;3.42;;
39188;SDS011;24915;50.858;4.376;2022-10-22T16:38:45;12.48;;;3.72;;